sensor_id;sensor_type;location;lat;lon;timestamp;P1;durP1;ratioP1;P2;durP2;ratioP2
35877;SDS011;21982;49.804;24.072;2023-07-22T00:00:55;10.00;;;4.53;;
35877;SDS011;21982;49.804;24.072;2023-07-22T00:03:20;6.72;;;2.97;;
35877;SDS011;21982;49.804;24.072;2023-07-22T00:05:45;8.23;;;3.83;;
35877;SDS011;21982;49.804;24.072;2023-07-22T00:08:11;8.85;;;3.63;;
35877;SDS011;21982;49.804;24.072;2023-07-22T00:10:40;11.15;;;2.80;;
35877;SDS011;21982;49.804;24.072;2023-07-22T00:13:07;7.75;;;3.20;;
35877;SDS011;21982;49.804;24.072;2023-07-22T00:15:32;10.65;;;3.05;;
35877;SDS011;21982;49.804;24.072;2023-07-22T00:17:59;10.88;;;3.50;;
35877;SDS011;21982;49.804;24.072;2023-07-22T00:20:25;9.15;;;3.50;;
35877;SDS011;21982;49.804;24.072;2023-07-22T00:22:50;8.27;;;3.72;;
35877;SDS011;21982;49.804;24.072;2023-07-22T00:25:17;7.53;;;3.53;;
35877;SDS011;21982;49.804;24.072;2023-07-22T00:27:43;7.63;;;3.60;;
35877;SDS011;21982;49.804;24.072;2023-07-22T00:30:08;6.93;;;3.20;;
35877;SDS011;21982;49.804;24.072;2023-07-22T00:32:34;7.82;;;3.78;;
35877;SDS011;21982;49.804;24.072;2023-07-22T00:35:05;7.32;;;3.83;;
35877;SDS011;21982;49.804;24.072;2023-07-22T00:37:31;7.97;;;3.35;;
35877;SDS011;21982;49.804;24.072;2023-07-22T00:39:57;10.30;;;3.83;;
35877;SDS011;21982;49.804;24.072;2023-07-22T00:42:22;8.77;;;3.95;;
35877;SDS011;21982;49.804;24.072;2023-07-22T00:44:48;12.60;;;4.13;;
35877;SDS011;21982;49.804;24.072;2023-07-22T00:47:13;6.88;;;3.83;;
35877;SDS011;21982;49.804;24.072;2023-07-22T00:49:39;8.20;;;3.63;;
35877;SDS011;21982;49.804;24.072;2023-07-22T00:52:05;8.38;;;4.20;;
35877;SDS011;21982;49.804;24.072;2023-07-22T00:54:32;9.13;;;4.28;;
35877;SDS011;21982;49.804;24.072;2023-07-22T00:56:58;7.88;;;3.42;;
35877;SDS011;21982;49.804;24.072;2023-07-22T00:59:26;9.23;;;4.05;;
35877;SDS011;21982;49.804;24.072;2023-07-22T01:01:54;9.80;;;4.10;;
35877;SDS011;21982;49.804;24.072;2023-07-22T01:04:19;8.75;;;4.57;;
35877;SDS011;21982;49.804;24.072;2023-07-22T01:06:48;10.73;;;4.32;;
35877;SDS011;21982;49.804;24.072;2023-07-22T01:09:14;7.57;;;4.40;;
35877;SDS011;21982;49.804;24.072;2023-07-22T01:11:42;8.50;;;4.50;;
35877;SDS011;21982;49.804;24.072;2023-07-22T01:14:08;8.27;;;4.47;;
35877;SDS011;21982;49.804;24.072;2023-07-22T01:16:35;7.60;;;3.97;;
35877;SDS011;21982;49.804;24.072;2023-07-22T01:19:01;6.80;;;3.83;;
35877;SDS011;21982;49.804;24.072;2023-07-22T01:21:26;8.18;;;4.18;;
35877;SDS011;21982;49.804;24.072;2023-07-22T01:23:54;8.35;;;3.75;;
35877;SDS011;21982;49.804;24.072;2023-07-22T01:26:19;7.05;;;4.07;;
35877;SDS011;21982;49.804;24.072;2023-07-22T01:28:45;8.80;;;4.07;;
35877;SDS011;21982;49.804;24.072;2023-07-22T01:31:11;8.32;;;4.40;;
35877;SDS011;21982;49.804;24.072;2023-07-22T01:33:37;6.50;;;3.20;;
35877;SDS011;21982;49.804;24.072;2023-07-22T01:36:03;7.40;;;3.30;;
35877;SDS011;21982;49.804;24.072;2023-07-22T01:38:28;7.50;;;4.07;;
35877;SDS011;21982;49.804;24.072;2023-07-22T01:40:54;7.00;;;2.95;;
35877;SDS011;21982;49.804;24.072;2023-07-22T01:43:20;6.25;;;3.88;;
35877;SDS011;21982;49.804;24.072;2023-07-22T01:45:46;6.63;;;3.58;;
35877;SDS011;21982;49.804;24.072;2023-07-22T01:48:11;6.22;;;3.03;;
35877;SDS011;21982;49.804;24.072;2023-07-22T01:50:37;5.53;;;2.65;;
35877;SDS011;21982;49.804;24.072;2023-07-22T01:53:02;6.85;;;3.38;;
35877;SDS011;21982;49.804;24.072;2023-07-22T01:55:29;6.53;;;3.58;;
35877;SDS011;21982;49.804;24.072;2023-07-22T01:57:54;6.95;;;3.17;;
35877;SDS011;21982;49.804;24.072;2023-07-22T02:00:20;6.38;;;3.10;;
35877;SDS011;21982;49.804;24.072;2023-07-22T02:02:46;7.60;;;3.45;;
35877;SDS011;21982;49.804;24.072;2023-07-22T02:05:11;7.95;;;3.50;;
35877;SDS011;21982;49.804;24.072;2023-07-22T02:07:37;6.00;;;3.75;;
35877;SDS011;21982;49.804;24.072;2023-07-22T02:10:03;7.57;;;3.83;;
35877;SDS011;21982;49.804;24.072;2023-07-22T02:12:29;7.57;;;4.13;;
35877;SDS011;21982;49.804;24.072;2023-07-22T02:14:55;7.82;;;3.38;;
35877;SDS011;21982;49.804;24.072;2023-07-22T02:17:20;6.40;;;3.58;;
35877;SDS011;21982;49.804;24.072;2023-07-22T02:19:45;7.47;;;4.13;;
35877;SDS011;21982;49.804;24.072;2023-07-22T02:22:11;7.57;;;3.42;;
35877;SDS011;21982;49.804;24.072;2023-07-22T02:24:37;8.63;;;4.15;;
35877;SDS011;21982;49.804;24.072;2023-07-22T02:27:03;8.85;;;3.70;;
35877;SDS011;21982;49.804;24.072;2023-07-22T02:29:28;7.03;;;3.55;;
35877;SDS011;21982;49.804;24.072;2023-07-22T02:31:56;8.82;;;4.05;;
35877;SDS011;21982;49.804;24.072;2023-07-22T02:34:22;9.13;;;3.90;;
35877;SDS011;21982;49.804;24.072;2023-07-22T02:36:48;6.60;;;3.17;;
35877;SDS011;21982;49.804;24.072;2023-07-22T02:39:13;7.63;;;4.20;;
35877;SDS011;21982;49.804;24.072;2023-07-22T02:41:39;8.38;;;4.63;;
35877;SDS011;21982;49.804;24.072;2023-07-22T02:44:04;6.97;;;3.78;;
35877;SDS011;21982;49.804;24.072;2023-07-22T02:46:30;8.55;;;3.90;;
35877;SDS011;21982;49.804;24.072;2023-07-22T02:48:56;9.40;;;4.25;;
35877;SDS011;21982;49.804;24.072;2023-07-22T02:51:21;9.10;;;4.07;;
35877;SDS011;21982;49.804;24.072;2023-07-22T02:53:47;6.40;;;3.50;;
35877;SDS011;21982;49.804;24.072;2023-07-22T02:56:13;7.28;;;3.70;;
35877;SDS011;21982;49.804;24.072;2023-07-22T02:58:39;8.52;;;3.97;;
35877;SDS011;21982;49.804;24.072;2023-07-22T03:01:07;6.25;;;3.58;;
35877;SDS011;21982;49.804;24.072;2023-07-22T03:03:35;6.28;;;3.17;;
35877;SDS011;21982;49.804;24.072;2023-07-22T03:06:01;9.45;;;3.97;;
35877;SDS011;21982;49.804;24.072;2023-07-22T03:08:28;7.05;;;3.50;;
35877;SDS011;21982;49.804;24.072;2023-07-22T03:10:54;7.40;;;4.47;;
35877;SDS011;21982;49.804;24.072;2023-07-22T03:13:19;8.95;;;4.15;;
35877;SDS011;21982;49.804;24.072;2023-07-22T03:15:44;10.10;;;4.43;;
35877;SDS011;21982;49.804;24.072;2023-07-22T03:18:10;8.02;;;3.22;;
35877;SDS011;21982;49.804;24.072;2023-07-22T03:20:36;7.60;;;4.22;;
35877;SDS011;21982;49.804;24.072;2023-07-22T03:23:03;10.10;;;4.32;;
35877;SDS011;21982;49.804;24.072;2023-07-22T03:25:29;7.93;;;3.65;;
35877;SDS011;21982;49.804;24.072;2023-07-22T03:27:55;7.50;;;3.55;;
35877;SDS011;21982;49.804;24.072;2023-07-22T03:30:21;7.13;;;3.60;;
35877;SDS011;21982;49.804;24.072;2023-07-22T03:32:47;6.80;;;3.40;;
35877;SDS011;21982;49.804;24.072;2023-07-22T03:35:15;8.00;;;3.92;;
35877;SDS011;21982;49.804;24.072;2023-07-22T03:37:41;5.40;;;2.97;;
35877;SDS011;21982;49.804;24.072;2023-07-22T03:40:07;9.27;;;3.20;;
35877;SDS011;21982;49.804;24.072;2023-07-22T03:42:48;5.75;;;2.85;;
35877;SDS011;21982;49.804;24.072;2023-07-22T03:45:15;7.60;;;3.65;;
35877;SDS011;21982;49.804;24.072;2023-07-22T03:47:41;8.20;;;2.97;;
35877;SDS011;21982;49.804;24.072;2023-07-22T03:50:08;5.47;;;2.45;;
35877;SDS011;21982;49.804;24.072;2023-07-22T03:52:34;7.07;;;3.50;;
35877;SDS011;21982;49.804;24.072;2023-07-22T03:54:59;7.60;;;3.38;;
35877;SDS011;21982;49.804;24.072;2023-07-22T03:57:27;4.93;;;2.53;;
35877;SDS011;21982;49.804;24.072;2023-07-22T03:59:54;6.38;;;2.75;;
35877;SDS011;21982;49.804;24.072;2023-07-22T04:02:20;6.35;;;3.08;;
35877;SDS011;21982;49.804;24.072;2023-07-22T04:04:46;6.80;;;2.60;;
35877;SDS011;21982;49.804;24.072;2023-07-22T04:07:12;8.90;;;2.90;;
35877;SDS011;21982;49.804;24.072;2023-07-22T04:09:37;5.60;;;2.47;;
35877;SDS011;21982;49.804;24.072;2023-07-22T04:12:03;5.70;;;2.88;;
35877;SDS011;21982;49.804;24.072;2023-07-22T04:14:28;5.88;;;2.75;;
35877;SDS011;21982;49.804;24.072;2023-07-22T04:16:54;5.78;;;2.90;;
35877;SDS011;21982;49.804;24.072;2023-07-22T04:19:19;4.85;;;2.60;;
35877;SDS011;21982;49.804;24.072;2023-07-22T04:21:44;6.85;;;3.50;;
35877;SDS011;21982;49.804;24.072;2023-07-22T04:24:10;5.00;;;2.45;;
35877;SDS011;21982;49.804;24.072;2023-07-22T04:26:35;5.22;;;2.53;;
35877;SDS011;21982;49.804;24.072;2023-07-22T04:29:01;7.13;;;3.03;;
35877;SDS011;21982;49.804;24.072;2023-07-22T04:31:26;7.85;;;3.58;;
35877;SDS011;21982;49.804;24.072;2023-07-22T04:33:52;6.45;;;3.00;;
35877;SDS011;21982;49.804;24.072;2023-07-22T04:36:18;5.65;;;2.58;;
35877;SDS011;21982;49.804;24.072;2023-07-22T04:38:43;4.30;;;2.88;;
35877;SDS011;21982;49.804;24.072;2023-07-22T04:41:09;5.07;;;2.40;;
35877;SDS011;21982;49.804;24.072;2023-07-22T04:43:34;4.82;;;2.30;;
35877;SDS011;21982;49.804;24.072;2023-07-22T04:46:00;7.47;;;2.90;;
35877;SDS011;21982;49.804;24.072;2023-07-22T04:48:26;4.65;;;2.45;;
35877;SDS011;21982;49.804;24.072;2023-07-22T04:50:51;3.83;;;2.35;;
35877;SDS011;21982;49.804;24.072;2023-07-22T04:53:17;5.95;;;2.38;;
35877;SDS011;21982;49.804;24.072;2023-07-22T04:55:44;5.40;;;2.42;;
35877;SDS011;21982;49.804;24.072;2023-07-22T04:58:10;7.03;;;2.53;;
35877;SDS011;21982;49.804;24.072;2023-07-22T05:00:36;5.55;;;2.30;;
35877;SDS011;21982;49.804;24.072;2023-07-22T05:03:03;4.53;;;2.13;;
35877;SDS011;21982;49.804;24.072;2023-07-22T05:05:29;5.78;;;2.63;;
35877;SDS011;21982;49.804;24.072;2023-07-22T05:07:55;4.20;;;2.25;;
35877;SDS011;21982;49.804;24.072;2023-07-22T05:10:20;4.38;;;2.45;;
35877;SDS011;21982;49.804;24.072;2023-07-22T05:12:46;4.10;;;2.08;;
35877;SDS011;21982;49.804;24.072;2023-07-22T05:15:11;7.18;;;2.75;;
35877;SDS011;21982;49.804;24.072;2023-07-22T05:17:39;6.38;;;2.53;;
35877;SDS011;21982;49.804;24.072;2023-07-22T05:20:05;5.75;;;3.65;;
35877;SDS011;21982;49.804;24.072;2023-07-22T05:22:34;4.72;;;2.30;;
35877;SDS011;21982;49.804;24.072;2023-07-22T05:25:00;4.95;;;2.50;;
35877;SDS011;21982;49.804;24.072;2023-07-22T05:27:26;4.20;;;2.40;;
35877;SDS011;21982;49.804;24.072;2023-07-22T05:29:51;6.03;;;2.47;;
35877;SDS011;21982;49.804;24.072;2023-07-22T05:32:16;4.80;;;2.42;;
35877;SDS011;21982;49.804;24.072;2023-07-22T05:34:42;5.32;;;1.75;;
35877;SDS011;21982;49.804;24.072;2023-07-22T05:37:07;5.07;;;2.63;;
35877;SDS011;21982;49.804;24.072;2023-07-22T05:39:34;5.10;;;2.72;;
35877;SDS011;21982;49.804;24.072;2023-07-22T05:41:59;5.63;;;2.22;;
35877;SDS011;21982;49.804;24.072;2023-07-22T05:44:25;5.25;;;2.22;;
35877;SDS011;21982;49.804;24.072;2023-07-22T05:46:51;6.70;;;2.60;;
35877;SDS011;21982;49.804;24.072;2023-07-22T05:49:16;5.18;;;2.75;;
35877;SDS011;21982;49.804;24.072;2023-07-22T05:51:42;7.63;;;2.85;;
35877;SDS011;21982;49.804;24.072;2023-07-22T05:54:07;6.05;;;2.13;;
35877;SDS011;21982;49.804;24.072;2023-07-22T05:56:36;4.03;;;1.90;;
35877;SDS011;21982;49.804;24.072;2023-07-22T05:59:01;5.82;;;2.10;;
35877;SDS011;21982;49.804;24.072;2023-07-22T06:01:27;5.00;;;1.92;;
35877;SDS011;21982;49.804;24.072;2023-07-22T06:03:53;4.13;;;1.88;;
35877;SDS011;21982;49.804;24.072;2023-07-22T06:06:18;4.95;;;1.90;;
35877;SDS011;21982;49.804;24.072;2023-07-22T06:08:45;3.47;;;1.83;;
35877;SDS011;21982;49.804;24.072;2023-07-22T06:11:12;5.25;;;1.90;;
35877;SDS011;21982;49.804;24.072;2023-07-22T06:13:37;2.85;;;1.60;;
35877;SDS011;21982;49.804;24.072;2023-07-22T06:16:03;3.20;;;1.80;;
35877;SDS011;21982;49.804;24.072;2023-07-22T06:18:29;4.68;;;1.70;;
35877;SDS011;21982;49.804;24.072;2023-07-22T06:20:54;5.63;;;2.08;;
35877;SDS011;21982;49.804;24.072;2023-07-22T06:23:20;4.10;;;1.80;;
35877;SDS011;21982;49.804;24.072;2023-07-22T06:25:45;3.65;;;2.13;;
35877;SDS011;21982;49.804;24.072;2023-07-22T06:28:11;4.00;;;2.15;;
35877;SDS011;21982;49.804;24.072;2023-07-22T06:30:36;5.63;;;2.10;;
35877;SDS011;21982;49.804;24.072;2023-07-22T06:33:01;5.25;;;2.33;;
35877;SDS011;21982;49.804;24.072;2023-07-22T06:35:27;3.28;;;2.05;;
35877;SDS011;21982;49.804;24.072;2023-07-22T06:37:53;6.05;;;2.35;;
35877;SDS011;21982;49.804;24.072;2023-07-22T06:40:18;3.78;;;2.30;;
35877;SDS011;21982;49.804;24.072;2023-07-22T06:42:44;5.15;;;2.83;;
35877;SDS011;21982;49.804;24.072;2023-07-22T06:45:09;5.28;;;2.80;;
35877;SDS011;21982;49.804;24.072;2023-07-22T06:47:36;4.68;;;2.30;;
35877;SDS011;21982;49.804;24.072;2023-07-22T06:50:02;6.13;;;2.40;;
35877;SDS011;21982;49.804;24.072;2023-07-22T06:52:29;4.55;;;2.03;;
35877;SDS011;21982;49.804;24.072;2023-07-22T06:54:55;6.57;;;2.53;;
35877;SDS011;21982;49.804;24.072;2023-07-22T06:57:20;6.53;;;2.03;;
35877;SDS011;21982;49.804;24.072;2023-07-22T06:59:46;4.80;;;2.75;;
35877;SDS011;21982;49.804;24.072;2023-07-22T07:02:12;5.20;;;2.78;;
35877;SDS011;21982;49.804;24.072;2023-07-22T07:04:37;5.50;;;2.60;;
35877;SDS011;21982;49.804;24.072;2023-07-22T07:07:02;5.82;;;2.38;;
35877;SDS011;21982;49.804;24.072;2023-07-22T07:09:28;5.20;;;2.58;;
35877;SDS011;21982;49.804;24.072;2023-07-22T07:11:53;6.40;;;2.70;;
35877;SDS011;21982;49.804;24.072;2023-07-22T07:14:21;5.30;;;2.67;;
35877;SDS011;21982;49.804;24.072;2023-07-22T07:16:48;5.13;;;2.60;;
35877;SDS011;21982;49.804;24.072;2023-07-22T07:19:14;5.35;;;2.28;;
35877;SDS011;21982;49.804;24.072;2023-07-22T07:21:39;4.95;;;1.70;;
35877;SDS011;21982;49.804;24.072;2023-07-22T07:24:05;5.93;;;2.47;;
35877;SDS011;21982;49.804;24.072;2023-07-22T07:26:31;4.35;;;2.30;;
35877;SDS011;21982;49.804;24.072;2023-07-22T07:28:56;5.13;;;2.65;;
35877;SDS011;21982;49.804;24.072;2023-07-22T07:31:22;6.70;;;2.72;;
35877;SDS011;21982;49.804;24.072;2023-07-22T07:33:47;5.75;;;2.45;;
35877;SDS011;21982;49.804;24.072;2023-07-22T07:36:12;3.60;;;2.13;;
35877;SDS011;21982;49.804;24.072;2023-07-22T07:38:38;4.93;;;2.28;;
35877;SDS011;21982;49.804;24.072;2023-07-22T07:41:04;4.57;;;1.95;;
35877;SDS011;21982;49.804;24.072;2023-07-22T07:43:33;4.75;;;2.95;;
35877;SDS011;21982;49.804;24.072;2023-07-22T07:48:47;5.10;;;2.50;;
35877;SDS011;21982;49.804;24.072;2023-07-22T07:51:14;5.30;;;2.80;;
35877;SDS011;21982;49.804;24.072;2023-07-22T07:53:41;5.20;;;2.53;;
35877;SDS011;21982;49.804;24.072;2023-07-22T07:56:08;4.60;;;2.58;;
35877;SDS011;21982;49.804;24.072;2023-07-22T07:58:35;4.50;;;2.42;;
35877;SDS011;21982;49.804;24.072;2023-07-22T08:01:00;6.53;;;2.50;;
35877;SDS011;21982;49.804;24.072;2023-07-22T08:03:26;5.95;;;3.38;;
35877;SDS011;21982;49.804;24.072;2023-07-22T08:05:51;4.65;;;2.55;;
35877;SDS011;21982;49.804;24.072;2023-07-22T08:08:19;6.60;;;2.90;;
35877;SDS011;21982;49.804;24.072;2023-07-22T08:10:45;6.38;;;3.40;;
35877;SDS011;21982;49.804;24.072;2023-07-22T08:13:15;7.18;;;3.38;;
35877;SDS011;21982;49.804;24.072;2023-07-22T08:15:42;7.13;;;2.35;;
35877;SDS011;21982;49.804;24.072;2023-07-22T08:18:08;4.63;;;2.70;;
35877;SDS011;21982;49.804;24.072;2023-07-22T08:20:35;5.93;;;2.67;;
35877;SDS011;21982;49.804;24.072;2023-07-22T08:23:00;6.28;;;3.15;;
35877;SDS011;21982;49.804;24.072;2023-07-22T08:25:27;5.95;;;2.70;;
35877;SDS011;21982;49.804;24.072;2023-07-22T08:27:54;7.53;;;3.15;;
35877;SDS011;21982;49.804;24.072;2023-07-22T08:30:19;5.75;;;2.92;;
35877;SDS011;21982;49.804;24.072;2023-07-22T08:32:46;6.68;;;3.30;;
35877;SDS011;21982;49.804;24.072;2023-07-22T08:35:11;10.32;;;3.15;;
35877;SDS011;21982;49.804;24.072;2023-07-22T08:37:37;5.20;;;2.75;;
35877;SDS011;21982;49.804;24.072;2023-07-22T08:40:02;5.05;;;3.00;;
35877;SDS011;21982;49.804;24.072;2023-07-22T08:42:28;4.63;;;2.75;;
35877;SDS011;21982;49.804;24.072;2023-07-22T08:44:57;4.82;;;2.80;;
35877;SDS011;21982;49.804;24.072;2023-07-22T08:47:26;5.30;;;3.25;;
35877;SDS011;21982;49.804;24.072;2023-07-22T08:49:55;6.45;;;2.95;;
35877;SDS011;21982;49.804;24.072;2023-07-22T08:52:23;5.20;;;3.25;;
35877;SDS011;21982;49.804;24.072;2023-07-22T08:54:49;9.18;;;3.83;;
35877;SDS011;21982;49.804;24.072;2023-07-22T08:57:15;11.73;;;3.45;;
35877;SDS011;21982;49.804;24.072;2023-07-22T08:59:41;7.85;;;3.08;;
35877;SDS011;21982;49.804;24.072;2023-07-22T09:02:09;5.18;;;3.00;;
35877;SDS011;21982;49.804;24.072;2023-07-22T09:04:37;5.80;;;3.13;;
35877;SDS011;21982;49.804;24.072;2023-07-22T09:07:02;7.32;;;3.70;;
35877;SDS011;21982;49.804;24.072;2023-07-22T09:09:28;11.57;;;4.55;;
35877;SDS011;21982;49.804;24.072;2023-07-22T09:11:56;12.30;;;4.03;;
35877;SDS011;21982;49.804;24.072;2023-07-22T09:14:22;6.38;;;3.05;;
35877;SDS011;21982;49.804;24.072;2023-07-22T09:16:49;7.53;;;3.15;;
35877;SDS011;21982;49.804;24.072;2023-07-22T09:19:14;5.78;;;2.63;;
35877;SDS011;21982;49.804;24.072;2023-07-22T09:21:41;4.47;;;2.60;;
35877;SDS011;21982;49.804;24.072;2023-07-22T09:24:20;6.03;;;3.00;;
35877;SDS011;21982;49.804;24.072;2023-07-22T09:29:43;6.50;;;3.20;;
35877;SDS011;21982;49.804;24.072;2023-07-22T09:32:13;5.75;;;2.90;;
35877;SDS011;21982;49.804;24.072;2023-07-22T09:34:46;8.18;;;3.70;;
35877;SDS011;21982;49.804;24.072;2023-07-22T09:37:21;5.50;;;2.90;;
35877;SDS011;21982;49.804;24.072;2023-07-22T09:39:46;8.43;;;4.00;;
35877;SDS011;21982;49.804;24.072;2023-07-22T09:42:22;6.57;;;3.40;;
35877;SDS011;21982;49.804;24.072;2023-07-22T09:44:50;7.43;;;3.65;;
35877;SDS011;21982;49.804;24.072;2023-07-22T09:47:17;7.53;;;2.67;;
35877;SDS011;21982;49.804;24.072;2023-07-22T09:49:43;10.48;;;3.15;;
35877;SDS011;21982;49.804;24.072;2023-07-22T09:52:09;8.05;;;4.13;;
35877;SDS011;21982;49.804;24.072;2023-07-22T09:54:46;6.15;;;2.90;;
35877;SDS011;21982;49.804;24.072;2023-07-22T09:57:13;4.40;;;2.67;;
35877;SDS011;21982;49.804;24.072;2023-07-22T09:59:39;4.63;;;2.70;;
35877;SDS011;21982;49.804;24.072;2023-07-22T10:02:04;11.88;;;3.60;;
35877;SDS011;21982;49.804;24.072;2023-07-22T10:04:31;5.93;;;2.90;;
35877;SDS011;21982;49.804;24.072;2023-07-22T10:06:59;4.80;;;3.10;;
35877;SDS011;21982;49.804;24.072;2023-07-22T10:09:25;4.97;;;2.65;;
35877;SDS011;21982;49.804;24.072;2023-07-22T10:11:53;6.65;;;3.05;;
35877;SDS011;21982;49.804;24.072;2023-07-22T10:14:18;7.80;;;4.18;;
35877;SDS011;21982;49.804;24.072;2023-07-22T10:16:44;4.78;;;2.75;;
35877;SDS011;21982;49.804;24.072;2023-07-22T10:19:11;4.78;;;3.20;;
35877;SDS011;21982;49.804;24.072;2023-07-22T10:21:38;4.68;;;2.65;;
35877;SDS011;21982;49.804;24.072;2023-07-22T10:24:03;4.88;;;2.65;;
35877;SDS011;21982;49.804;24.072;2023-07-22T10:26:29;4.50;;;2.78;;
35877;SDS011;21982;49.804;24.072;2023-07-22T10:28:58;6.72;;;2.60;;
35877;SDS011;21982;49.804;24.072;2023-07-22T10:31:24;5.50;;;2.45;;
35877;SDS011;21982;49.804;24.072;2023-07-22T10:33:50;5.65;;;2.30;;
35877;SDS011;21982;49.804;24.072;2023-07-22T10:36:16;2.80;;;2.10;;
35877;SDS011;21982;49.804;24.072;2023-07-22T10:38:42;4.60;;;1.80;;
35877;SDS011;21982;49.804;24.072;2023-07-22T10:41:15;3.47;;;1.95;;
35877;SDS011;21982;49.804;24.072;2023-07-22T10:43:54;2.90;;;2.00;;
35877;SDS011;21982;49.804;24.072;2023-07-22T10:46:30;5.22;;;2.45;;
35877;SDS011;21982;49.804;24.072;2023-07-22T10:49:15;4.28;;;2.10;;
35877;SDS011;21982;49.804;24.072;2023-07-22T10:54:12;8.32;;;2.05;;
35877;SDS011;21982;49.804;24.072;2023-07-22T10:56:40;4.47;;;2.28;;
35877;SDS011;21982;49.804;24.072;2023-07-22T10:59:09;3.78;;;2.08;;
35877;SDS011;21982;49.804;24.072;2023-07-22T11:01:36;6.68;;;2.15;;
35877;SDS011;21982;49.804;24.072;2023-07-22T11:14:28;5.20;;;2.80;;
35877;SDS011;21982;49.804;24.072;2023-07-22T11:16:59;5.30;;;2.20;;
35877;SDS011;21982;49.804;24.072;2023-07-22T11:19:26;6.80;;;3.17;;
35877;SDS011;21982;49.804;24.072;2023-07-22T11:21:54;5.25;;;2.63;;
35877;SDS011;21982;49.804;24.072;2023-07-22T11:24:20;4.72;;;2.88;;
35877;SDS011;21982;49.804;24.072;2023-07-22T11:26:47;7.40;;;2.97;;
35877;SDS011;21982;49.804;24.072;2023-07-22T11:29:13;9.52;;;3.10;;
35877;SDS011;21982;49.804;24.072;2023-07-22T11:31:40;6.28;;;3.40;;
35877;SDS011;21982;49.804;24.072;2023-07-22T11:34:08;3.90;;;2.60;;
35877;SDS011;21982;49.804;24.072;2023-07-22T11:36:34;6.15;;;3.05;;
35877;SDS011;21982;49.804;24.072;2023-07-22T11:39:05;6.10;;;2.80;;
35877;SDS011;21982;49.804;24.072;2023-07-22T11:41:32;6.40;;;2.70;;
35877;SDS011;21982;49.804;24.072;2023-07-22T11:43:59;5.80;;;2.92;;
35877;SDS011;21982;49.804;24.072;2023-07-22T11:46:25;9.13;;;3.33;;
35877;SDS011;21982;49.804;24.072;2023-07-22T11:48:52;10.00;;;2.75;;
35877;SDS011;21982;49.804;24.072;2023-07-22T11:51:22;4.72;;;2.17;;
35877;SDS011;21982;49.804;24.072;2023-07-22T11:53:50;4.43;;;2.58;;
35877;SDS011;21982;49.804;24.072;2023-07-22T11:56:22;4.68;;;2.75;;
35877;SDS011;21982;49.804;24.072;2023-07-22T11:58:56;5.57;;;2.60;;
35877;SDS011;21982;49.804;24.072;2023-07-22T12:01:22;4.20;;;2.22;;
35877;SDS011;21982;49.804;24.072;2023-07-22T12:03:48;5.18;;;2.50;;
35877;SDS011;21982;49.804;24.072;2023-07-22T12:06:15;8.65;;;2.40;;
35877;SDS011;21982;49.804;24.072;2023-07-22T12:08:45;6.18;;;2.15;;
35877;SDS011;21982;49.804;24.072;2023-07-22T12:11:18;4.30;;;2.28;;
35877;SDS011;21982;49.804;24.072;2023-07-22T12:13:45;5.25;;;2.85;;
35877;SDS011;21982;49.804;24.072;2023-07-22T12:16:20;6.97;;;2.85;;
35877;SDS011;21982;49.804;24.072;2023-07-22T12:18:47;9.15;;;2.95;;
35877;SDS011;21982;49.804;24.072;2023-07-22T12:21:13;7.65;;;2.97;;
35877;SDS011;21982;49.804;24.072;2023-07-22T12:23:39;7.32;;;3.38;;
35877;SDS011;21982;49.804;24.072;2023-07-22T12:26:06;10.07;;;2.95;;
35877;SDS011;21982;49.804;24.072;2023-07-22T12:28:31;7.43;;;3.22;;
35877;SDS011;21982;49.804;24.072;2023-07-22T12:30:57;10.18;;;5.00;;
35877;SDS011;21982;49.804;24.072;2023-07-22T12:33:25;6.60;;;3.65;;
35877;SDS011;21982;49.804;24.072;2023-07-22T12:35:52;5.53;;;2.95;;
35877;SDS011;21982;49.804;24.072;2023-07-22T12:38:19;6.28;;;3.10;;
35877;SDS011;21982;49.804;24.072;2023-07-22T12:40:45;6.00;;;3.10;;
35877;SDS011;21982;49.804;24.072;2023-07-22T12:43:10;6.68;;;3.42;;
35877;SDS011;21982;49.804;24.072;2023-07-22T12:45:36;7.78;;;3.35;;
35877;SDS011;21982;49.804;24.072;2023-07-22T12:48:03;5.72;;;3.45;;
35877;SDS011;21982;49.804;24.072;2023-07-22T12:50:30;4.13;;;3.03;;
35877;SDS011;21982;49.804;24.072;2023-07-22T12:52:57;4.90;;;2.60;;
35877;SDS011;21982;49.804;24.072;2023-07-22T12:55:23;5.57;;;2.90;;
35877;SDS011;21982;49.804;24.072;2023-07-22T12:57:50;4.85;;;2.75;;
35877;SDS011;21982;49.804;24.072;2023-07-22T13:00:34;7.88;;;3.75;;
35877;SDS011;21982;49.804;24.072;2023-07-22T13:03:06;6.38;;;3.13;;
35877;SDS011;21982;49.804;24.072;2023-07-22T13:05:34;9.07;;;3.97;;
35877;SDS011;21982;49.804;24.072;2023-07-22T13:08:03;5.35;;;3.30;;
35877;SDS011;21982;49.804;24.072;2023-07-22T13:10:28;5.68;;;3.60;;
35877;SDS011;21982;49.804;24.072;2023-07-22T13:12:58;7.68;;;3.25;;
35877;SDS011;21982;49.804;24.072;2023-07-22T13:15:23;9.85;;;4.25;;
35877;SDS011;21982;49.804;24.072;2023-07-22T13:17:49;5.00;;;3.03;;
35877;SDS011;21982;49.804;24.072;2023-07-22T13:20:14;3.97;;;2.40;;
35877;SDS011;21982;49.804;24.072;2023-07-22T13:22:41;5.07;;;2.70;;
35877;SDS011;21982;49.804;24.072;2023-07-22T13:25:06;3.67;;;2.25;;
35877;SDS011;21982;49.804;24.072;2023-07-22T13:27:34;5.95;;;2.20;;
35877;SDS011;21982;49.804;24.072;2023-07-22T13:29:59;5.30;;;2.80;;
35877;SDS011;21982;49.804;24.072;2023-07-22T13:32:26;3.35;;;1.85;;
35877;SDS011;21982;49.804;24.072;2023-07-22T13:34:52;5.28;;;2.78;;
35877;SDS011;21982;49.804;24.072;2023-07-22T13:37:17;6.53;;;2.00;;
35877;SDS011;21982;49.804;24.072;2023-07-22T13:39:43;3.72;;;1.90;;
35877;SDS011;21982;49.804;24.072;2023-07-22T13:42:08;5.28;;;2.20;;
35877;SDS011;21982;49.804;24.072;2023-07-22T13:44:34;4.25;;;2.60;;
35877;SDS011;21982;49.804;24.072;2023-07-22T13:46:59;6.75;;;2.63;;
35877;SDS011;21982;49.804;24.072;2023-07-22T13:49:25;4.82;;;2.38;;
35877;SDS011;21982;49.804;24.072;2023-07-22T13:51:51;5.97;;;2.40;;
35877;SDS011;21982;49.804;24.072;2023-07-22T13:54:18;4.68;;;2.00;;
35877;SDS011;21982;49.804;24.072;2023-07-22T13:56:45;5.18;;;2.15;;
35877;SDS011;21982;49.804;24.072;2023-07-22T13:59:12;4.60;;;2.55;;
35877;SDS011;21982;49.804;24.072;2023-07-22T14:01:39;4.88;;;3.10;;
35877;SDS011;21982;49.804;24.072;2023-07-22T14:04:04;6.35;;;2.60;;
35877;SDS011;21982;49.804;24.072;2023-07-22T14:06:30;4.57;;;2.80;;
35877;SDS011;21982;49.804;24.072;2023-07-22T14:08:56;4.85;;;2.30;;
35877;SDS011;21982;49.804;24.072;2023-07-22T14:11:21;4.85;;;2.28;;
35877;SDS011;21982;49.804;24.072;2023-07-22T14:13:46;6.20;;;2.50;;
35877;SDS011;21982;49.804;24.072;2023-07-22T14:16:12;5.38;;;2.88;;
35877;SDS011;21982;49.804;24.072;2023-07-22T14:18:37;4.90;;;2.47;;
35877;SDS011;21982;49.804;24.072;2023-07-22T14:21:03;5.95;;;2.55;;
35877;SDS011;21982;49.804;24.072;2023-07-22T14:23:29;6.93;;;2.42;;
35877;SDS011;21982;49.804;24.072;2023-07-22T14:25:54;5.82;;;2.25;;
35877;SDS011;21982;49.804;24.072;2023-07-22T14:28:20;6.40;;;2.03;;
35877;SDS011;21982;49.804;24.072;2023-07-22T14:30:58;5.60;;;2.45;;
35877;SDS011;21982;49.804;24.072;2023-07-22T14:33:23;5.18;;;2.28;;
35877;SDS011;21982;49.804;24.072;2023-07-22T14:35:49;4.47;;;2.30;;
35877;SDS011;21982;49.804;24.072;2023-07-22T14:38:14;4.55;;;2.25;;
35877;SDS011;21982;49.804;24.072;2023-07-22T14:40:40;4.00;;;2.03;;
35877;SDS011;21982;49.804;24.072;2023-07-22T14:43:05;11.30;;;2.67;;
35877;SDS011;21982;49.804;24.072;2023-07-22T14:45:31;6.88;;;2.15;;
35877;SDS011;21982;49.804;24.072;2023-07-22T14:47:57;5.93;;;2.05;;